sensor_id;sensor_type;location;lat;lon;timestamp;P1;durP1;ratioP1;P2;durP2;ratioP2
23702;SDS011;12030;50.376;8.762;2022-07-23T00:01:02;5.60;;;3.97;;
23702;SDS011;12030;50.376;8.762;2022-07-23T00:03:28;4.67;;;3.60;;
23702;SDS011;12030;50.376;8.762;2022-07-23T00:05:53;5.50;;;3.53;;
23702;SDS011;12030;50.376;8.762;2022-07-23T00:08:19;5.63;;;4.10;;
23702;SDS011;12030;50.376;8.762;2022-07-23T00:10:44;5.70;;;3.93;;
23702;SDS011;12030;50.376;8.762;2022-07-23T00:13:10;5.70;;;4.27;;
23702;SDS011;12030;50.376;8.762;2022-07-23T00:15:37;7.67;;;3.63;;
23702;SDS011;12030;50.376;8.762;2022-07-23T00:18:02;5.60;;;3.63;;
23702;SDS011;12030;50.376;8.762;2022-07-23T00:20:28;5.40;;;4.03;;
23702;SDS011;12030;50.376;8.762;2022-07-23T00:22:54;6.50;;;3.90;;
23702;SDS011;12030;50.376;8.762;2022-07-23T00:25:20;4.30;;;3.27;;
23702;SDS011;12030;50.376;8.762;2022-07-23T00:27:47;6.70;;;3.93;;
23702;SDS011;12030;50.376;8.762;2022-07-23T00:30:12;6.90;;;4.53;;
23702;SDS011;12030;50.376;8.762;2022-07-23T00:32:45;6.00;;;3.70;;
23702;SDS011;12030;50.376;8.762;2022-07-23T00:35:11;8.67;;;4.37;;
23702;SDS011;12030;50.376;8.762;2022-07-23T00:37:37;7.10;;;5.10;;
23702;SDS011;12030;50.376;8.762;2022-07-23T00:40:03;8.33;;;4.93;;
23702;SDS011;12030;50.376;8.762;2022-07-23T00:42:30;7.63;;;4.27;;
23702;SDS011;12030;50.376;8.762;2022-07-23T00:44:56;7.97;;;4.73;;
23702;SDS011;12030;50.376;8.762;2022-07-23T00:47:22;5.83;;;5.03;;
23702;SDS011;12030;50.376;8.762;2022-07-23T00:49:47;6.20;;;4.83;;
23702;SDS011;12030;50.376;8.762;2022-07-23T00:52:13;7.03;;;4.63;;
23702;SDS011;12030;50.376;8.762;2022-07-23T00:54:39;6.53;;;5.27;;
23702;SDS011;12030;50.376;8.762;2022-07-23T00:57:04;6.23;;;4.90;;
23702;SDS011;12030;50.376;8.762;2022-07-23T00:59:30;7.47;;;5.00;;
23702;SDS011;12030;50.376;8.762;2022-07-23T01:01:56;6.57;;;5.40;;
23702;SDS011;12030;50.376;8.762;2022-07-23T01:04:21;8.03;;;5.90;;
23702;SDS011;12030;50.376;8.762;2022-07-23T01:06:47;9.20;;;5.23;;
23702;SDS011;12030;50.376;8.762;2022-07-23T01:09:12;8.23;;;5.30;;
23702;SDS011;12030;50.376;8.762;2022-07-23T01:11:38;8.93;;;5.17;;
23702;SDS011;12030;50.376;8.762;2022-07-23T01:14:11;7.40;;;5.33;;
23702;SDS011;12030;50.376;8.762;2022-07-23T01:16:42;6.47;;;4.73;;
23702;SDS011;12030;50.376;8.762;2022-07-23T01:19:09;7.53;;;5.47;;
23702;SDS011;12030;50.376;8.762;2022-07-23T01:21:36;9.40;;;5.37;;
23702;SDS011;12030;50.376;8.762;2022-07-23T01:24:06;6.43;;;5.33;;
23702;SDS011;12030;50.376;8.762;2022-07-23T01:26:33;8.63;;;5.23;;
23702;SDS011;12030;50.376;8.762;2022-07-23T01:28:58;8.90;;;5.70;;
23702;SDS011;12030;50.376;8.762;2022-07-23T01:31:24;6.80;;;5.13;;
23702;SDS011;12030;50.376;8.762;2022-07-23T01:33:50;7.30;;;5.40;;
23702;SDS011;12030;50.376;8.762;2022-07-23T01:36:15;6.43;;;4.93;;
23702;SDS011;12030;50.376;8.762;2022-07-23T01:38:41;9.60;;;5.67;;
23702;SDS011;12030;50.376;8.762;2022-07-23T01:41:06;8.30;;;5.37;;
23702;SDS011;12030;50.376;8.762;2022-07-23T01:43:32;7.90;;;5.17;;
23702;SDS011;12030;50.376;8.762;2022-07-23T01:45:58;7.07;;;5.13;;
23702;SDS011;12030;50.376;8.762;2022-07-23T01:48:23;7.00;;;5.80;;
23702;SDS011;12030;50.376;8.762;2022-07-23T01:50:49;6.33;;;4.80;;
23702;SDS011;12030;50.376;8.762;2022-07-23T01:53:14;7.07;;;5.80;;
23702;SDS011;12030;50.376;8.762;2022-07-23T01:55:41;9.17;;;5.50;;
23702;SDS011;12030;50.376;8.762;2022-07-23T01:58:06;9.27;;;5.90;;
23702;SDS011;12030;50.376;8.762;2022-07-23T02:00:32;7.80;;;5.50;;
23702;SDS011;12030;50.376;8.762;2022-07-23T02:02:58;9.83;;;6.03;;
23702;SDS011;12030;50.376;8.762;2022-07-23T02:05:24;8.90;;;5.27;;
23702;SDS011;12030;50.376;8.762;2022-07-23T02:07:50;7.23;;;5.30;;
23702;SDS011;12030;50.376;8.762;2022-07-23T02:10:15;7.77;;;5.33;;
23702;SDS011;12030;50.376;8.762;2022-07-23T02:12:41;6.07;;;5.47;;
23702;SDS011;12030;50.376;8.762;2022-07-23T02:15:07;9.07;;;6.10;;
23702;SDS011;12030;50.376;8.762;2022-07-23T02:17:33;8.47;;;6.03;;
23702;SDS011;12030;50.376;8.762;2022-07-23T02:19:58;5.90;;;5.20;;
23702;SDS011;12030;50.376;8.762;2022-07-23T02:22:24;8.10;;;6.17;;
23702;SDS011;12030;50.376;8.762;2022-07-23T02:24:49;9.57;;;5.37;;
23702;SDS011;12030;50.376;8.762;2022-07-23T02:27:15;9.10;;;6.17;;
23702;SDS011;12030;50.376;8.762;2022-07-23T02:29:40;10.77;;;5.47;;
23702;SDS011;12030;50.376;8.762;2022-07-23T02:32:06;8.40;;;5.80;;
23702;SDS011;12030;50.376;8.762;2022-07-23T02:34:31;10.50;;;5.73;;
23702;SDS011;12030;50.376;8.762;2022-07-23T02:36:57;7.50;;;5.53;;
23702;SDS011;12030;50.376;8.762;2022-07-23T02:39:22;8.63;;;5.70;;
23702;SDS011;12030;50.376;8.762;2022-07-23T02:41:48;10.03;;;6.10;;
23702;SDS011;12030;50.376;8.762;2022-07-23T02:44:13;9.20;;;6.00;;
23702;SDS011;12030;50.376;8.762;2022-07-23T02:46:39;7.53;;;6.00;;
23702;SDS011;12030;50.376;8.762;2022-07-23T02:49:04;8.57;;;6.53;;
23702;SDS011;12030;50.376;8.762;2022-07-23T02:51:30;10.00;;;6.70;;
23702;SDS011;12030;50.376;8.762;2022-07-23T02:53:56;8.00;;;6.47;;
23702;SDS011;12030;50.376;8.762;2022-07-23T02:56:21;10.60;;;5.97;;
23702;SDS011;12030;50.376;8.762;2022-07-23T02:58:47;9.27;;;6.80;;
23702;SDS011;12030;50.376;8.762;2022-07-23T03:01:12;9.90;;;6.83;;
23702;SDS011;12030;50.376;8.762;2022-07-23T03:03:38;9.90;;;6.47;;
23702;SDS011;12030;50.376;8.762;2022-07-23T03:06:03;9.80;;;6.83;;
23702;SDS011;12030;50.376;8.762;2022-07-23T03:08:29;11.27;;;6.83;;
23702;SDS011;12030;50.376;8.762;2022-07-23T03:10:55;9.10;;;6.97;;
23702;SDS011;12030;50.376;8.762;2022-07-23T03:13:20;7.57;;;6.00;;
23702;SDS011;12030;50.376;8.762;2022-07-23T03:15:46;10.13;;;6.77;;
23702;SDS011;12030;50.376;8.762;2022-07-23T03:18:11;13.53;;;7.33;;
23702;SDS011;12030;50.376;8.762;2022-07-23T03:20:37;8.13;;;6.40;;
23702;SDS011;12030;50.376;8.762;2022-07-23T03:23:02;7.63;;;6.07;;
23702;SDS011;12030;50.376;8.762;2022-07-23T03:25:28;10.53;;;6.83;;
23702;SDS011;12030;50.376;8.762;2022-07-23T03:27:53;9.13;;;6.60;;
23702;SDS011;12030;50.376;8.762;2022-07-23T03:30:19;9.73;;;6.77;;
23702;SDS011;12030;50.376;8.762;2022-07-23T03:32:44;12.93;;;6.20;;
23702;SDS011;12030;50.376;8.762;2022-07-23T03:35:10;9.80;;;7.13;;
23702;SDS011;12030;50.376;8.762;2022-07-23T03:37:36;8.47;;;6.83;;
23702;SDS011;12030;50.376;8.762;2022-07-23T03:40:01;8.50;;;6.90;;
23702;SDS011;12030;50.376;8.762;2022-07-23T03:42:27;9.17;;;6.67;;
23702;SDS011;12030;50.376;8.762;2022-07-23T03:44:53;8.33;;;6.07;;
23702;SDS011;12030;50.376;8.762;2022-07-23T03:47:18;9.67;;;7.17;;
23702;SDS011;12030;50.376;8.762;2022-07-23T03:49:46;10.40;;;6.83;;
23702;SDS011;12030;50.376;8.762;2022-07-23T03:52:12;10.47;;;7.13;;
23702;SDS011;12030;50.376;8.762;2022-07-23T03:54:38;10.17;;;7.57;;
23702;SDS011;12030;50.376;8.762;2022-07-23T03:57:04;9.87;;;6.73;;
23702;SDS011;12030;50.376;8.762;2022-07-23T03:59:29;11.63;;;7.50;;
23702;SDS011;12030;50.376;8.762;2022-07-23T04:01:55;11.33;;;7.30;;
23702;SDS011;12030;50.376;8.762;2022-07-23T04:04:20;9.50;;;6.67;;
23702;SDS011;12030;50.376;8.762;2022-07-23T04:06:46;11.63;;;7.40;;
23702;SDS011;12030;50.376;8.762;2022-07-23T04:09:12;8.73;;;6.27;;
23702;SDS011;12030;50.376;8.762;2022-07-23T04:11:38;9.10;;;7.27;;
23702;SDS011;12030;50.376;8.762;2022-07-23T04:14:03;10.90;;;6.73;;
23702;SDS011;12030;50.376;8.762;2022-07-23T04:16:29;10.57;;;7.00;;
23702;SDS011;12030;50.376;8.762;2022-07-23T04:18:56;11.57;;;6.80;;
23702;SDS011;12030;50.376;8.762;2022-07-23T04:21:22;13.20;;;7.80;;
23702;SDS011;12030;50.376;8.762;2022-07-23T04:23:48;10.13;;;7.10;;
23702;SDS011;12030;50.376;8.762;2022-07-23T04:26:14;12.03;;;6.67;;
23702;SDS011;12030;50.376;8.762;2022-07-23T04:28:39;11.67;;;7.50;;
23702;SDS011;12030;50.376;8.762;2022-07-23T04:31:05;12.37;;;8.20;;
23702;SDS011;12030;50.376;8.762;2022-07-23T04:33:30;11.30;;;6.93;;
23702;SDS011;12030;50.376;8.762;2022-07-23T04:35:56;14.47;;;6.93;;
23702;SDS011;12030;50.376;8.762;2022-07-23T04:38:22;13.47;;;7.10;;
23702;SDS011;12030;50.376;8.762;2022-07-23T04:40:47;12.43;;;8.00;;
23702;SDS011;12030;50.376;8.762;2022-07-23T04:43:13;8.67;;;6.97;;
23702;SDS011;12030;50.376;8.762;2022-07-23T04:45:38;12.13;;;7.33;;
23702;SDS011;12030;50.376;8.762;2022-07-23T04:48:04;12.13;;;7.30;;
23702;SDS011;12030;50.376;8.762;2022-07-23T04:50:29;9.57;;;7.00;;
23702;SDS011;12030;50.376;8.762;2022-07-23T04:52:55;9.17;;;7.53;;
23702;SDS011;12030;50.376;8.762;2022-07-23T04:55:20;10.73;;;7.30;;
23702;SDS011;12030;50.376;8.762;2022-07-23T04:57:46;13.40;;;6.47;;
23702;SDS011;12030;50.376;8.762;2022-07-23T05:00:11;12.27;;;7.53;;
23702;SDS011;12030;50.376;8.762;2022-07-23T05:02:37;9.73;;;6.73;;
23702;SDS011;12030;50.376;8.762;2022-07-23T05:05:03;12.17;;;7.23;;
23702;SDS011;12030;50.376;8.762;2022-07-23T05:07:29;12.17;;;7.27;;
23702;SDS011;12030;50.376;8.762;2022-07-23T05:09:54;9.10;;;6.57;;
23702;SDS011;12030;50.376;8.762;2022-07-23T05:12:20;10.10;;;6.70;;
23702;SDS011;12030;50.376;8.762;2022-07-23T05:14:45;9.30;;;6.93;;
23702;SDS011;12030;50.376;8.762;2022-07-23T05:17:11;9.03;;;6.53;;
23702;SDS011;12030;50.376;8.762;2022-07-23T05:19:36;8.50;;;6.50;;
23702;SDS011;12030;50.376;8.762;2022-07-23T05:22:02;11.47;;;6.87;;
23702;SDS011;12030;50.376;8.762;2022-07-23T05:24:27;10.20;;;6.33;;
23702;SDS011;12030;50.376;8.762;2022-07-23T05:26:53;13.67;;;6.60;;
23702;SDS011;12030;50.376;8.762;2022-07-23T05:29:18;12.30;;;6.97;;
23702;SDS011;12030;50.376;8.762;2022-07-23T05:31:44;11.83;;;6.97;;
23702;SDS011;12030;50.376;8.762;2022-07-23T05:34:09;9.30;;;6.73;;
23702;SDS011;12030;50.376;8.762;2022-07-23T05:36:35;8.80;;;6.60;;
23702;SDS011;12030;50.376;8.762;2022-07-23T05:39:02;9.17;;;7.20;;
23702;SDS011;12030;50.376;8.762;2022-07-23T05:41:28;10.00;;;6.50;;
23702;SDS011;12030;50.376;8.762;2022-07-23T05:43:54;8.70;;;6.07;;
23702;SDS011;12030;50.376;8.762;2022-07-23T05:46:19;9.90;;;6.57;;
23702;SDS011;12030;50.376;8.762;2022-07-23T05:48:45;8.47;;;6.57;;
23702;SDS011;12030;50.376;8.762;2022-07-23T05:51:18;8.70;;;6.53;;
23702;SDS011;12030;50.376;8.762;2022-07-23T05:53:44;8.97;;;6.13;;
23702;SDS011;12030;50.376;8.762;2022-07-23T05:56:10;11.97;;;6.20;;
23702;SDS011;12030;50.376;8.762;2022-07-23T05:58:35;8.83;;;6.30;;
23702;SDS011;12030;50.376;8.762;2022-07-23T06:01:01;7.33;;;4.97;;
23702;SDS011;12030;50.376;8.762;2022-07-23T06:03:26;9.50;;;5.83;;
23702;SDS011;12030;50.376;8.762;2022-07-23T06:05:52;8.67;;;5.70;;
23702;SDS011;12030;50.376;8.762;2022-07-23T06:08:17;6.73;;;5.10;;
23702;SDS011;12030;50.376;8.762;2022-07-23T06:10:43;7.93;;;4.80;;
23702;SDS011;12030;50.376;8.762;2022-07-23T06:13:08;7.40;;;5.17;;
23702;SDS011;12030;50.376;8.762;2022-07-23T06:15:34;7.60;;;5.20;;
23702;SDS011;12030;50.376;8.762;2022-07-23T06:18:00;6.60;;;4.87;;
23702;SDS011;12030;50.376;8.762;2022-07-23T06:20:25;7.37;;;5.43;;
23702;SDS011;12030;50.376;8.762;2022-07-23T06:22:51;8.63;;;4.97;;
23702;SDS011;12030;50.376;8.762;2022-07-23T06:25:16;6.23;;;4.43;;
23702;SDS011;12030;50.376;8.762;2022-07-23T06:27:42;6.17;;;4.50;;
23702;SDS011;12030;50.376;8.762;2022-07-23T06:30:08;6.23;;;4.07;;
23702;SDS011;12030;50.376;8.762;2022-07-23T06:32:35;6.20;;;3.90;;
23702;SDS011;12030;50.376;8.762;2022-07-23T06:35:00;5.77;;;3.70;;
23702;SDS011;12030;50.376;8.762;2022-07-23T06:37:26;7.70;;;4.40;;
23702;SDS011;12030;50.376;8.762;2022-07-23T06:39:51;4.63;;;3.70;;
23702;SDS011;12030;50.376;8.762;2022-07-23T06:42:17;7.17;;;3.33;;
23702;SDS011;12030;50.376;8.762;2022-07-23T06:44:42;4.77;;;3.30;;
23702;SDS011;12030;50.376;8.762;2022-07-23T06:47:08;4.30;;;3.43;;
23702;SDS011;12030;50.376;8.762;2022-07-23T06:49:34;5.93;;;3.27;;
23702;SDS011;12030;50.376;8.762;2022-07-23T06:51:59;5.70;;;3.57;;
23702;SDS011;12030;50.376;8.762;2022-07-23T06:54:25;7.03;;;3.50;;
23702;SDS011;12030;50.376;8.762;2022-07-23T06:56:50;7.70;;;3.67;;
23702;SDS011;12030;50.376;8.762;2022-07-23T06:59:16;6.20;;;3.60;;
23702;SDS011;12030;50.376;8.762;2022-07-23T07:01:41;5.20;;;3.80;;
23702;SDS011;12030;50.376;8.762;2022-07-23T07:04:07;4.97;;;3.60;;
23702;SDS011;12030;50.376;8.762;2022-07-23T07:06:33;4.57;;;3.30;;
23702;SDS011;12030;50.376;8.762;2022-07-23T07:08:58;4.33;;;3.37;;
23702;SDS011;12030;50.376;8.762;2022-07-23T07:11:24;4.07;;;3.30;;
23702;SDS011;12030;50.376;8.762;2022-07-23T07:13:50;3.83;;;3.30;;
23702;SDS011;12030;50.376;8.762;2022-07-23T07:16:16;6.50;;;3.70;;
23702;SDS011;12030;50.376;8.762;2022-07-23T07:18:41;3.97;;;3.57;;
23702;SDS011;12030;50.376;8.762;2022-07-23T07:21:07;3.33;;;3.03;;
23702;SDS011;12030;50.376;8.762;2022-07-23T07:23:33;6.33;;;3.33;;
23702;SDS011;12030;50.376;8.762;2022-07-23T07:25:58;7.47;;;3.30;;
23702;SDS011;12030;50.376;8.762;2022-07-23T07:28:24;3.73;;;3.23;;
23702;SDS011;12030;50.376;8.762;2022-07-23T07:30:49;4.03;;;3.00;;
23702;SDS011;12030;50.376;8.762;2022-07-23T07:33:15;7.20;;;3.23;;
23702;SDS011;12030;50.376;8.762;2022-07-23T07:35:41;3.17;;;2.80;;
23702;SDS011;12030;50.376;8.762;2022-07-23T07:38:06;5.27;;;3.43;;
23702;SDS011;12030;50.376;8.762;2022-07-23T07:40:32;4.07;;;3.40;;
23702;SDS011;12030;50.376;8.762;2022-07-23T07:42:57;4.37;;;3.47;;
23702;SDS011;12030;50.376;8.762;2022-07-23T07:45:23;3.60;;;2.67;;
23702;SDS011;12030;50.376;8.762;2022-07-23T07:47:50;3.80;;;2.90;;
23702;SDS011;12030;50.376;8.762;2022-07-23T07:50:17;3.43;;;2.60;;
23702;SDS011;12030;50.376;8.762;2022-07-23T07:52:43;3.70;;;2.83;;
23702;SDS011;12030;50.376;8.762;2022-07-23T07:55:09;5.17;;;2.80;;
23702;SDS011;12030;50.376;8.762;2022-07-23T07:57:36;3.63;;;3.00;;
23702;SDS011;12030;50.376;8.762;2022-07-23T08:00:02;4.00;;;2.90;;
23702;SDS011;12030;50.376;8.762;2022-07-23T08:02:39;5.00;;;3.40;;
23702;SDS011;12030;50.376;8.762;2022-07-23T08:05:12;6.97;;;3.23;;
23702;SDS011;12030;50.376;8.762;2022-07-23T08:07:38;4.13;;;3.10;;
23702;SDS011;12030;50.376;8.762;2022-07-23T08:10:05;3.33;;;2.63;;
23702;SDS011;12030;50.376;8.762;2022-07-23T08:12:40;4.13;;;3.13;;
23702;SDS011;12030;50.376;8.762;2022-07-23T08:15:10;5.43;;;3.47;;
23702;SDS011;12030;50.376;8.762;2022-07-23T08:17:38;5.93;;;4.40;;
23702;SDS011;12030;50.376;8.762;2022-07-23T08:20:04;6.57;;;3.90;;
23702;SDS011;12030;50.376;8.762;2022-07-23T08:22:41;4.00;;;3.20;;
23702;SDS011;12030;50.376;8.762;2022-07-23T08:25:07;4.17;;;3.70;;
23702;SDS011;12030;50.376;8.762;2022-07-23T08:27:33;4.80;;;3.30;;
23702;SDS011;12030;50.376;8.762;2022-07-23T08:29:59;4.90;;;3.23;;
23702;SDS011;12030;50.376;8.762;2022-07-23T08:32:24;4.73;;;3.43;;
23702;SDS011;12030;50.376;8.762;2022-07-23T08:34:50;5.13;;;3.60;;
23702;SDS011;12030;50.376;8.762;2022-07-23T08:37:15;7.37;;;3.63;;
23702;SDS011;12030;50.376;8.762;2022-07-23T08:39:41;4.37;;;3.63;;
23702;SDS011;12030;50.376;8.762;2022-07-23T08:42:06;3.87;;;2.73;;
23702;SDS011;12030;50.376;8.762;2022-07-23T08:44:33;10.20;;;3.27;;
23702;SDS011;12030;50.376;8.762;2022-07-23T08:47:00;6.67;;;3.80;;
23702;SDS011;12030;50.376;8.762;2022-07-23T08:49:26;3.90;;;3.50;;
23702;SDS011;12030;50.376;8.762;2022-07-23T08:51:53;4.03;;;3.53;;
23702;SDS011;12030;50.376;8.762;2022-07-23T08:54:19;3.40;;;3.10;;
23702;SDS011;12030;50.376;8.762;2022-07-23T08:56:46;6.20;;;3.43;;
23702;SDS011;12030;50.376;8.762;2022-07-23T08:59:13;4.93;;;3.20;;
23702;SDS011;12030;50.376;8.762;2022-07-23T09:01:39;7.93;;;3.70;;
23702;SDS011;12030;50.376;8.762;2022-07-23T09:04:04;5.53;;;3.77;;
23702;SDS011;12030;50.376;8.762;2022-07-23T09:06:30;4.17;;;2.93;;
23702;SDS011;12030;50.376;8.762;2022-07-23T09:08:55;5.13;;;3.10;;
23702;SDS011;12030;50.376;8.762;2022-07-23T09:11:21;3.53;;;3.20;;
23702;SDS011;12030;50.376;8.762;2022-07-23T09:13:48;5.13;;;3.27;;
23702;SDS011;12030;50.376;8.762;2022-07-23T09:16:18;4.13;;;3.30;;
23702;SDS011;12030;50.376;8.762;2022-07-23T09:23:51;3.77;;;2.93;;
23702;SDS011;12030;50.376;8.762;2022-07-23T09:26:41;3.30;;;2.50;;
23702;SDS011;12030;50.376;8.762;2022-07-23T09:31:43;4.03;;;2.63;;
23702;SDS011;12030;50.376;8.762;2022-07-23T09:37:08;7.63;;;2.43;;
23702;SDS011;12030;50.376;8.762;2022-07-23T09:39:34;2.83;;;2.30;;
23702;SDS011;12030;50.376;8.762;2022-07-23T09:42:12;2.77;;;2.40;;
23702;SDS011;12030;50.376;8.762;2022-07-23T09:44:41;3.37;;;2.50;;
23702;SDS011;12030;50.376;8.762;2022-07-23T09:47:09;3.03;;;2.60;;
23702;SDS011;12030;50.376;8.762;2022-07-23T09:49:34;4.13;;;2.50;;
23702;SDS011;12030;50.376;8.762;2022-07-23T09:52:00;4.67;;;2.80;;
23702;SDS011;12030;50.376;8.762;2022-07-23T09:54:34;4.67;;;2.80;;
23702;SDS011;12030;50.376;8.762;2022-07-23T09:57:05;3.63;;;2.70;;
23702;SDS011;12030;50.376;8.762;2022-07-23T09:59:39;4.17;;;2.53;;
23702;SDS011;12030;50.376;8.762;2022-07-23T10:02:05;2.60;;;2.13;;
23702;SDS011;12030;50.376;8.762;2022-07-23T10:04:32;4.90;;;2.37;;
23702;SDS011;12030;50.376;8.762;2022-07-23T10:07:00;3.50;;;2.27;;
23702;SDS011;12030;50.376;8.762;2022-07-23T10:09:28;4.33;;;2.80;;
23702;SDS011;12030;50.376;8.762;2022-07-23T10:11:56;2.90;;;2.60;;
23702;SDS011;12030;50.376;8.762;2022-07-23T10:14:44;4.57;;;2.20;;
23702;SDS011;12030;50.376;8.762;2022-07-23T10:17:10;3.63;;;2.00;;
23702;SDS011;12030;50.376;8.762;2022-07-23T10:19:35;3.17;;;2.27;;
23702;SDS011;12030;50.376;8.762;2022-07-23T10:22:03;3.07;;;2.30;;
23702;SDS011;12030;50.376;8.762;2022-07-23T10:30:30;2.53;;;2.23;;
23702;SDS011;12030;50.376;8.762;2022-07-23T10:35:52;4.53;;;2.63;;
23702;SDS011;12030;50.376;8.762;2022-07-23T10:41:03;3.63;;;2.60;;
23702;SDS011;12030;50.376;8.762;2022-07-23T10:43:30;2.47;;;2.13;;
23702;SDS011;12030;50.376;8.762;2022-07-23T10:45:57;2.67;;;2.40;;
23702;SDS011;12030;50.376;8.762;2022-07-23T10:49:24;3.50;;;2.40;;
23702;SDS011;12030;50.376;8.762;2022-07-23T10:54:38;3.57;;;2.57;;
23702;SDS011;12030;50.376;8.762;2022-07-23T10:57:05;3.57;;;2.47;;
23702;SDS011;12030;50.376;8.762;2022-07-23T11:00:08;4.37;;;2.70;;
23702;SDS011;12030;50.376;8.762;2022-07-23T11:02:31;4.33;;;2.60;;
23702;SDS011;12030;50.376;8.762;2022-07-23T11:05:04;3.30;;;2.57;;
23702;SDS011;12030;50.376;8.762;2022-07-23T11:07:32;3.40;;;2.40;;
23702;SDS011;12030;50.376;8.762;2022-07-23T11:09:59;3.60;;;2.53;;
23702;SDS011;12030;50.376;8.762;2022-07-23T11:17:39;3.47;;;2.73;;
23702;SDS011;12030;50.376;8.762;2022-07-23T11:25:07;3.17;;;2.87;;
23702;SDS011;12030;50.376;8.762;2022-07-23T11:27:39;3.37;;;2.77;;
23702;SDS011;12030;50.376;8.762;2022-07-23T11:30:37;3.27;;;2.90;;
23702;SDS011;12030;50.376;8.762;2022-07-23T11:35:41;3.97;;;2.97;;
23702;SDS011;12030;50.376;8.762;2022-07-23T11:38:25;4.47;;;2.83;;
23702;SDS011;12030;50.376;8.762;2022-07-23T11:40:54;2.53;;;2.33;;
23702;SDS011;12030;50.376;8.762;2022-07-23T11:43:23;3.53;;;2.97;;
23702;SDS011;12030;50.376;8.762;2022-07-23T11:45:50;3.50;;;3.20;;
23702;SDS011;12030;50.376;8.762;2022-07-23T11:48:22;6.53;;;3.33;;
23702;SDS011;12030;50.376;8.762;2022-07-23T11:50:50;3.20;;;2.83;;
23702;SDS011;12030;50.376;8.762;2022-07-23T11:53:26;3.27;;;2.90;;
23702;SDS011;12030;50.376;8.762;2022-07-23T11:55:54;6.13;;;3.60;;
23702;SDS011;12030;50.376;8.762;2022-07-23T11:58:35;3.10;;;2.80;;
23702;SDS011;12030;50.376;8.762;2022-07-23T12:01:01;3.50;;;2.80;;
23702;SDS011;12030;50.376;8.762;2022-07-23T12:03:27;3.50;;;3.07;;
23702;SDS011;12030;50.376;8.762;2022-07-23T12:05:56;3.40;;;3.10;;
23702;SDS011;12030;50.376;8.762;2022-07-23T12:08:22;5.13;;;3.47;;
23702;SDS011;12030;50.376;8.762;2022-07-23T12:10:48;7.53;;;4.53;;
23702;SDS011;12030;50.376;8.762;2022-07-23T12:13:15;4.33;;;2.93;;
23702;SDS011;12030;50.376;8.762;2022-07-23T12:15:43;3.10;;;2.80;;
23702;SDS011;12030;50.376;8.762;2022-07-23T12:18:11;5.57;;;3.10;;
23702;SDS011;12030;50.376;8.762;2022-07-23T12:20:40;3.30;;;3.00;;
23702;SDS011;12030;50.376;8.762;2022-07-23T12:23:12;5.80;;;3.60;;
23702;SDS011;12030;50.376;8.762;2022-07-23T12:25:39;6.60;;;3.53;;
23702;SDS011;12030;50.376;8.762;2022-07-23T12:28:17;4.50;;;3.07;;
23702;SDS011;12030;50.376;8.762;2022-07-23T12:30:44;3.40;;;3.10;;
23702;SDS011;12030;50.376;8.762;2022-07-23T12:33:11;4.97;;;3.30;;
23702;SDS011;12030;50.376;8.762;2022-07-23T12:35:47;3.20;;;2.90;;
23702;SDS011;12030;50.376;8.762;2022-07-23T12:38:14;3.20;;;3.00;;
23702;SDS011;12030;50.376;8.762;2022-07-23T12:40:45;3.57;;;3.07;;
23702;SDS011;12030;50.376;8.762;2022-07-23T12:46:06;4.13;;;3.33;;
23702;SDS011;12030;50.376;8.762;2022-07-23T12:48:37;3.17;;;2.87;;
23702;SDS011;12030;50.376;8.762;2022-07-23T12:51:07;3.17;;;2.87;;
23702;SDS011;12030;50.376;8.762;2022-07-23T12:53:44;3.20;;;2.60;;
23702;SDS011;12030;50.376;8.762;2022-07-23T12:56:16;3.83;;;3.30;;
23702;SDS011;12030;50.376;8.762;2022-07-23T12:58:47;3.67;;;3.10;;
23702;SDS011;12030;50.376;8.762;2022-07-23T13:03:54;3.77;;;3.20;;
23702;SDS011;12030;50.376;8.762;2022-07-23T13:06:20;3.10;;;2.90;;
23702;SDS011;12030;50.376;8.762;2022-07-23T13:08:45;4.87;;;3.00;;
23702;SDS011;12030;50.376;8.762;2022-07-23T13:11:11;6.17;;;3.07;;
23702;SDS011;12030;50.376;8.762;2022-07-23T13:13:36;3.47;;;3.03;;
23702;SDS011;12030;50.376;8.762;2022-07-23T13:16:02;4.80;;;3.30;;
23702;SDS011;12030;50.376;8.762;2022-07-23T13:18:28;3.43;;;3.10;;
23702;SDS011;12030;50.376;8.762;2022-07-23T13:20:54;5.57;;;3.03;;
23702;SDS011;12030;50.376;8.762;2022-07-23T13:23:20;3.23;;;2.80;;
23702;SDS011;12030;50.376;8.762;2022-07-23T13:25:46;7.57;;;3.40;;
23702;SDS011;12030;50.376;8.762;2022-07-23T13:28:12;4.22;;;3.45;;
23702;SDS011;12030;50.376;8.762;2022-07-23T13:30:39;5.60;;;3.30;;
23702;SDS011;12030;50.376;8.762;2022-07-23T13:33:06;3.70;;;3.27;;
23702;SDS011;12030;50.376;8.762;2022-07-23T13:35:33;4.53;;;3.30;;
23702;SDS011;12030;50.376;8.762;2022-07-23T13:38:00;3.40;;;2.60;;
23702;SDS011;12030;50.376;8.762;2022-07-23T13:40:26;3.90;;;3.50;;
23702;SDS011;12030;50.376;8.762;2022-07-23T13:42:52;4.32;;;3.50;;
23702;SDS011;12030;50.376;8.762;2022-07-23T13:45:17;4.05;;;3.13;;
23702;SDS011;12030;50.376;8.762;2022-07-23T13:47:43;3.78;;;3.30;;
23702;SDS011;12030;50.376;8.762;2022-07-23T13:50:08;3.43;;;3.13;;
23702;SDS011;12030;50.376;8.762;2022-07-23T13:52:34;3.47;;;2.93;;
23702;SDS011;12030;50.376;8.762;2022-07-23T13:55:01;3.97;;;2.80;;
23702;SDS011;12030;50.376;8.762;2022-07-23T13:57:28;5.83;;;3.20;;
23702;SDS011;12030;50.376;8.762;2022-07-23T13:59:54;5.63;;;3.00;;
23702;SDS011;12030;50.376;8.762;2022-07-23T14:02:20;4.73;;;3.17;;
23702;SDS011;12030;50.376;8.762;2022-07-23T14:04:45;3.50;;;3.03;;
23702;SDS011;12030;50.376;8.762;2022-07-23T14:07:11;5.20;;;3.30;;
23702;SDS011;12030;50.376;8.762;2022-07-23T14:09:36;4.20;;;3.00;;
23702;SDS011;12030;50.376;8.762;2022-07-23T14:12:03;3.40;;;3.10;;
23702;SDS011;12030;50.376;8.762;2022-07-23T14:14:29;3.80;;;2.95;;
23702;SDS011;12030;50.376;8.762;2022-07-23T14:16:55;5.60;;;3.00;;
23702;SDS011;12030;50.376;8.762;2022-07-23T14:19:21;4.25;;;3.08;;
23702;SDS011;12030;50.376;8.762;2022-07-23T14:21:47;4.43;;;3.20;;
23702;SDS011;12030;50.376;8.762;2022-07-23T14:24:13;4.43;;;3.10;;
23702;SDS011;12030;50.376;8.762;2022-07-23T14:26:40;3.45;;;2.92;;
23702;SDS011;12030;50.376;8.762;2022-07-23T14:29:05;4.60;;;3.35;;
23702;SDS011;12030;50.376;8.762;2022-07-23T14:31:31;4.10;;;2.95;;
23702;SDS011;12030;50.376;8.762;2022-07-23T14:33:56;3.03;;;2.73;;
23702;SDS011;12030;50.376;8.762;2022-07-23T14:36:22;4.27;;;3.00;;
23702;SDS011;12030;50.376;8.762;2022-07-23T14:38:49;4.35;;;2.97;;
23702;SDS011;12030;50.376;8.762;2022-07-23T14:41:14;4.70;;;3.10;;
23702;SDS011;12030;50.376;8.762;2022-07-23T14:43:40;3.10;;;2.80;;
23702;SDS011;12030;50.376;8.762;2022-07-23T14:46:06;4.60;;;2.80;;
23702;SDS011;12030;50.376;8.762;2022-07-23T14:48:31;3.38;;;2.47;;
23702;SDS011;12030;50.376;8.762;2022-07-23T14:50:57;3.15;;;2.85;;
23702;SDS011;12030;50.376;8.762;2022-07-23T14:53:22;2.95;;;2.47;;
23702;SDS011;12030;50.376;8.762;2022-07-23T14:55:48;3.70;;;2.60;;
23702;SDS011;12030;50.376;8.762;2022-07-23T14:58:13;3.80;;;2.47;;
23702;SDS011;12030;50.376;8.762;2022-07-23T15:00:39;4.20;;;2.60;;
23702;SDS011;12030;50.376;8.762;2022-07-23T15:03:05;4.10;;;2.90;;
23702;SDS011;12030;50.376;8.762;2022-07-23T15:05:30;4.47;;;2.50;;
23702;SDS011;12030;50.376;8.762;2022-07-23T15:07:56;3.35;;;2.60;;
23702;SDS011;12030;50.376;8.762;2022-07-23T15:10:21;3.28;;;2.50;;
23702;SDS011;12030;50.376;8.762;2022-07-23T15:12:47;2.67;;;2.40;;
23702;SDS011;12030;50.376;8.762;2022-07-23T15:15:13;3.70;;;2.33;;
23702;SDS011;12030;50.376;8.762;2022-07-23T15:17:38;2.63;;;2.43;;
23702;SDS011;12030;50.376;8.762;2022-07-23T15:20:04;3.85;;;2.80;;
23702;SDS011;12030;50.376;8.762;2022-07-23T15:22:30;3.72;;;2.53;;
23702;SDS011;12030;50.376;8.762;2022-07-23T15:24:56;3.27;;;2.40;;
23702;SDS011;12030;50.376;8.762;2022-07-23T15:27:22;3.70;;;2.67;;